Time;durP1;ratioP1;P1;durP2;ratioP2;P2;SDS_P1;SDS_P2;PMS_P1;PMS_P2;Temp;Humidity;BMP_temperature;BMP_pressure;BME280_temperature;BME280_humidity;BME280_pressure;Samples;Min_cycle;Max_cycle;Signal;HPM_P1;HPM_P2
2024/03/31 00:01:08;;;;;;;10.60;3.57;;;11.80;69.80;;;13.34;52.93;96031.56;5033637;28;20049;-38
2024/03/31 00:03:39;;;;;;;14.30;4.60;;;11.80;69.80;;;13.35;52.93;96030.53;5033406;28;20045;-38
2024/03/31 00:06:06;;;;;;;18.38;4.57;;;11.80;69.50;;;13.30;52.81;96030.38;5033561;28;20130;-38
2024/03/31 00:08:33;;;;;;;18.55;4.18;;;11.80;69.40;;;13.28;53.00;96028.91;5033685;28;20056;-38
2024/03/31 00:11:03;;;;;;;15.35;4.20;;;11.80;69.50;;;13.28;53.11;96023.56;5033521;28;20056;-38
2024/03/31 00:13:29;;;;;;;17.75;4.10;;;11.80;69.80;;;13.28;52.89;96018.22;5033216;28;20045;-38
2024/03/31 00:15:56;;;;;;;11.73;3.70;;;11.80;69.50;;;13.26;53.36;96015.78;5033397;28;20060;-38
2024/03/31 00:18:23;;;;;;;12.00;3.50;;;11.80;70.00;;;13.22;53.32;96019.91;5033326;28;20060;-38
2024/03/31 00:20:58;;;;;;;12.27;3.83;;;11.80;70.20;;;13.22;53.46;96006.53;5033078;28;20052;-38
2024/03/31 00:23:25;;;;;;;8.07;4.40;;;11.80;70.40;;;13.20;53.35;96011.28;5033083;28;20556;-38
2024/03/31 00:25:57;;;;;;;10.88;3.80;;;11.80;70.50;;;13.23;53.53;96007.38;5033024;28;20435;-38
2024/03/31 00:28:24;;;;;;;18.58;4.22;;;11.80;70.70;;;13.20;53.47;96006.78;5033263;28;20041;-38
2024/03/31 00:30:59;;;;;;;12.43;5.10;;;11.80;70.50;;;13.16;53.71;96008.25;5016566;28;20560;-38
2024/03/31 00:33:26;;;;;;;18.33;5.00;;;11.80;70.70;;;13.13;53.86;96011.34;5032904;28;20421;-38
2024/03/31 00:35:55;;;;;;;13.20;5.43;;;11.80;72.00;;;13.13;54.01;96014.03;5015723;28;20062;-38
2024/03/31 00:38:23;;;;;;;11.13;4.13;;;11.80;71.00;;;13.12;53.95;96011.56;5016874;28;20421;-38
2024/03/31 00:40:51;;;;;;;13.07;3.97;;;11.70;71.20;;;13.12;54.11;96016.91;5015766;28;20056;-38
2024/03/31 00:43:17;;;;;;;18.37;4.03;;;11.70;71.50;;;13.12;53.96;96019.56;5032508;28;20543;-37
2024/03/31 00:45:44;;;;;;;18.90;4.67;;;11.70;71.60;;;13.12;54.00;96027.59;5016436;28;20424;-38
2024/03/31 00:48:11;;;;;;;10.73;3.83;;;11.70;71.60;;;13.15;53.98;96027.16;5016441;28;20045;-38
2024/03/31 00:50:38;;;;;;;12.18;3.53;;;11.70;71.70;;;13.19;53.93;96036.38;5016131;28;20456;-38
2024/03/31 00:53:05;;;;;;;12.57;4.03;;;11.70;71.50;;;13.19;53.95;96039.06;5032223;28;20045;-38
2024/03/31 00:55:32;;;;;;;13.67;3.77;;;11.70;71.50;;;13.19;54.07;96039.06;5015891;28;20053;-38
2024/03/31 00:57:58;;;;;;;13.90;4.23;;;11.70;72.10;;;13.20;53.87;96041.53;5015643;28;20054;-38
2024/03/31 01:00:25;;;;;;;13.65;4.15;;;11.70;72.10;;;13.22;54.24;96053.81;5016201;28;20045;-38
2024/03/31 01:02:52;;;;;;;15.13;3.40;;;11.70;72.60;;;13.23;54.12;96050.13;5032306;28;20414;-38
2024/03/31 01:05:19;;;;;;;10.02;3.70;;;11.60;72.90;;;13.22;54.17;96049.28;5016400;28;20292;-38
2024/03/31 01:07:46;;;;;;;17.37;4.27;;;11.70;72.90;;;13.20;54.29;96046.88;5016245;28;20052;-38
2024/03/31 01:10:13;;;;;;;12.15;3.45;;;11.70;72.80;;;13.19;54.36;96045.22;5015769;28;20041;-38
2024/03/31 01:12:40;;;;;;;9.77;3.07;;;11.70;72.50;;;13.15;54.50;96043.19;4999079;28;20056;-39
2024/03/31 01:15:09;;;;;;;15.63;4.50;;;11.70;72.80;;;13.12;54.60;96054.31;4999920;28;20046;-38
2024/03/31 01:17:36;;;;;;;17.00;3.80;;;11.70;72.90;;;13.07;54.72;96056.81;5015864;28;20437;-38
2024/03/31 01:20:03;;;;;;;12.23;4.73;;;11.60;73.10;;;12.89;55.83;96063.72;5015474;28;20505;-38
2024/03/31 01:22:31;;;;;;;15.00;4.20;;;11.40;75.40;;;12.74;56.28;96069.34;4999060;28;20056;-38
2024/03/31 01:24:58;;;;;;;8.67;3.73;;;11.20;76.80;;;12.60;56.41;96067.72;5015866;28;20056;-38
2024/03/31 01:27:24;;;;;;;17.13;4.77;;;11.00;78.90;;;12.56;57.18;96069.19;5032313;28;20048;-38
2024/03/31 01:29:51;;;;;;;11.77;4.37;;;11.00;79.60;;;12.48;57.34;96058.75;5015832;28;20049;-38
2024/03/31 01:32:18;;;;;;;12.50;4.43;;;10.90;79.70;;;12.41;57.40;96054.28;5015502;28;20071;-38
2024/03/31 01:34:44;;;;;;;20.40;4.27;;;10.90;79.70;;;12.43;57.48;96056.75;5015519;28;20435;-38
2024/03/31 01:37:11;;;;;;;17.80;4.73;;;10.80;80.10;;;12.46;57.17;96063.50;5015370;28;20056;-38
2024/03/31 01:39:38;;;;;;;9.90;4.33;;;10.80;80.00;;;12.44;57.11;96071.72;5028355;28;20068;-38
2024/03/31 01:42:05;;;;;;;16.40;5.10;;;10.90;79.30;;;12.48;57.39;96078.25;5007068;28;20057;-38
2024/03/31 01:44:31;;;;;;;13.23;3.97;;;11.00;79.30;;;12.51;57.48;96061.84;5031618;28;20052;-38
2024/03/31 01:46:58;;;;;;;17.07;3.83;;;11.10;79.20;;;12.44;57.96;96053.03;5015640;28;20053;-38
2024/03/31 01:49:25;;;;;;;14.13;4.17;;;11.00;79.80;;;12.45;57.96;96051.19;5015482;28;20044;-38
2024/03/31 01:51:51;;;;;;;12.57;3.37;;;10.90;80.60;;;12.48;57.81;96048.91;5014505;28;20057;-39
2024/03/31 01:54:18;;;;;;;12.57;3.50;;;11.00;80.60;;;12.52;57.71;96043.97;5015031;28;20064;-39
2024/03/31 01:56:45;;;;;;;10.13;4.23;;;10.90;80.80;;;12.43;58.30;96030.06;5031697;28;20042;-38
2024/03/31 01:59:12;;;;;;;16.40;3.40;;;10.90;81.50;;;12.46;58.03;96024.28;5015160;28;20532;-38
2024/03/31 02:01:38;;;;;;;13.43;2.93;;;10.90;81.90;;;12.40;58.54;96015.25;5030990;28;20041;-38
2024/03/31 02:04:05;;;;;;;13.17;3.20;;;10.80;82.70;;;12.34;58.63;96016.13;5014816;28;20053;-38
2024/03/31 02:06:32;;;;;;;13.50;4.67;;;10.70;83.20;;;12.36;58.93;96008.72;5014810;28;20060;-38
2024/03/31 02:08:58;;;;;;;9.90;2.90;;;10.80;83.40;;;12.40;58.43;96009.13;5015338;28;20057;-38
2024/03/31 02:11:25;;;;;;;13.33;3.57;;;10.80;83.20;;;12.41;58.87;96008.09;5007210;28;20053;-38
2024/03/31 02:13:52;;;;;;;15.37;4.60;;;10.80;84.00;;;12.42;58.90;96004.38;5013848;28;20057;-39
2024/03/31 02:16:20;;;;;;;11.83;3.13;;;10.80;84.40;;;12.41;58.79;95987.56;5015142;28;20053;-38
2024/03/31 02:18:47;;;;;;;12.27;3.77;;;10.80;84.30;;;12.37;58.65;95983.69;5014407;28;20531;-38
2024/03/31 02:21:14;;;;;;;10.20;3.00;;;10.70;84.70;;;12.30;59.34;95987.41;5031129;28;20056;-38
2024/03/31 02:23:40;;;;;;;14.13;3.70;;;10.60;85.80;;;12.28;59.51;95979.63;5014411;28;20049;-38
2024/03/31 02:26:07;;;;;;;14.73;2.97;;;10.60;86.50;;;12.31;59.31;95978.34;5014443;28;20046;-38
2024/03/31 02:28:36;;;;;;;12.77;2.97;;;10.60;85.80;;;12.27;59.83;95971.81;5014070;28;20045;-38
2024/03/31 02:31:03;;;;;;;17.20;4.30;;;10.60;87.20;;;12.22;59.77;95983.13;5014084;28;20049;-38
2024/03/31 02:33:34;;;;;;;13.70;4.13;;;10.50;88.30;;;12.25;59.76;95981.88;5014874;28;20133;-38
2024/03/31 02:36:01;;;;;;;13.60;3.93;;;10.60;87.10;;;12.17;59.75;95958.94;5030941;28;20041;-38
2024/03/31 02:38:28;;;;;;;13.70;3.60;;;10.50;87.30;;;12.12;60.09;95945.44;5006880;28;20041;-39
2024/03/31 02:40:55;;;;;;;11.73;3.90;;;10.40;88.50;;;12.12;59.91;95948.91;5029916;28;20444;-39
2024/03/31 02:43:22;;;;;;;9.90;2.93;;;10.40;88.50;;;12.12;60.11;95956.91;5030221;28;20045;-38
2024/03/31 02:45:50;;;;;;;15.27;3.43;;;10.50;87.60;;;12.06;60.10;95962.25;5014986;28;20041;-38
2024/03/31 02:48:17;;;;;;;12.17;3.03;;;10.50;87.10;;;11.99;60.27;95951.63;5013775;28;20054;-38
2024/03/31 02:50:48;;;;;;;14.37;4.43;;;10.40;87.90;;;11.93;60.82;95942.63;5013692;28;20041;-38
2024/03/31 02:53:15;;;;;;;10.83;3.53;;;10.30;89.50;;;11.92;60.56;95946.34;5013793;28;20045;-38
2024/03/31 02:55:42;;;;;;;13.30;3.80;;;10.20;89.50;;;11.91;60.84;95962.53;4997838;28;20052;-38
2024/03/31 02:58:09;;;;;;;16.13;3.90;;;10.30;89.80;;;11.95;60.63;95947.75;5013916;28;20545;-38
2024/03/31 03:00:37;;;;;;;11.50;3.50;;;10.20;89.80;;;11.90;60.92;95956.38;5013895;28;20060;-38
2024/03/31 03:03:04;;;;;;;11.37;4.00;;;10.20;90.20;;;11.85;61.03;95950.84;5013104;28;20049;-38
2024/03/31 03:05:31;;;;;;;10.20;3.53;;;10.10;90.80;;;11.90;61.17;95966.22;5014386;28;20049;-38
2024/03/31 03:08:00;;;;;;;11.37;4.10;;;10.20;90.80;;;11.88;60.80;95954.91;5014081;28;20448;-38
2024/03/31 03:10:27;;;;;;;19.37;4.80;;;10.10;90.10;;;11.79;60.99;95949.81;5013734;28;20418;-38
2024/03/31 03:12:54;;;;;;;13.90;6.50;;;10.10;90.50;;;11.78;61.17;95952.69;5013634;28;20057;-38
2024/03/31 03:15:22;;;;;;;12.37;6.50;;;10.00;90.70;;;11.75;61.04;95959.28;5013534;28;20060;-38
2024/03/31 03:17:50;;;;;;;13.03;3.60;;;10.00;91.50;;;11.74;61.25;95960.28;5013059;28;20041;-39
2024/03/31 03:20:18;;;;;;;9.17;3.93;;;9.90;91.90;;;11.73;61.24;95949.81;5013723;28;20041;-38
2024/03/31 03:22:45;;;;;;;11.40;5.00;;;9.90;92.00;;;11.71;61.35;95933.22;5029629;28;20524;-38
2024/03/31 03:25:11;;;;;;;15.27;3.60;;;9.90;91.80;;;11.69;61.19;95927.28;5029977;28;20053;-39
2024/03/31 03:27:38;;;;;;;16.17;4.50;;;10.00;92.10;;;11.67;61.06;95940.84;5013627;28;20050;-38
2024/03/31 03:30:06;;;;;;;12.43;4.43;;;9.90;92.20;;;11.66;61.13;95941.88;5006212;28;20049;-38
2024/03/31 03:32:32;;;;;;;18.60;5.83;;;9.90;92.10;;;11.67;61.46;95956.84;5021881;28;20048;-38
2024/03/31 03:35:01;;;;;;;10.50;4.80;;;9.90;91.70;;;11.67;61.43;95950.66;5013394;28;20050;-39
2024/03/31 03:37:27;;;;;;;18.73;4.57;;;9.90;91.50;;;11.65;61.33;95956.22;5013041;28;20053;-38
2024/03/31 03:39:54;;;;;;;12.97;3.63;;;9.80;91.20;;;11.66;61.01;95949.06;5013656;28;20049;-38
2024/03/31 03:42:23;;;;;;;17.53;4.30;;;9.90;91.50;;;11.65;61.06;95948.25;5013221;28;20112;-39
2024/03/31 03:44:49;;;;;;;10.10;4.30;;;9.90;91.50;;;11.66;61.06;95943.72;5030283;28;20049;-38
2024/03/31 03:47:16;;;;;;;13.37;4.70;;;9.80;91.10;;;11.64;61.40;95949.25;5030000;28;20066;-38
2024/03/31 03:49:43;;;;;;;14.50;3.90;;;9.80;90.10;;;11.61;60.90;95939.00;5013800;28;20061;-38
2024/03/31 03:52:09;;;;;;;12.77;5.43;;;9.80;91.00;;;11.59;61.20;95944.56;5013013;28;20292;-38
2024/03/31 03:54:36;;;;;;;10.00;3.33;;;9.70;91.20;;;11.57;60.84;95951.94;5013014;28;20425;-39
2024/03/31 03:57:03;;;;;;;12.43;3.60;;;9.70;90.70;;;11.54;61.08;95943.53;5013151;28;20052;-38
2024/03/31 03:59:30;;;;;;;10.53;3.90;;;9.60;90.60;;;11.50;60.98;95947.66;5013382;28;20049;-39
2024/03/31 04:01:56;;;;;;;9.30;4.90;;;9.60;91.90;;;11.53;61.06;95953.38;5012935;28;20041;-39
2024/03/31 04:04:23;;;;;;;17.33;4.77;;;9.60;91.60;;;11.54;61.00;95949.69;5013508;28;20048;-38
2024/03/31 04:06:50;;;;;;;10.67;3.87;;;9.70;90.70;;;11.52;61.10;95933.09;5013079;28;20046;-38
2024/03/31 04:09:16;;;;;;;13.27;5.43;;;9.70;91.20;;;11.50;61.32;95937.00;5013021;28;20049;-37
2024/03/31 04:11:43;;;;;;;12.70;4.70;;;9.60;90.80;;;11.47;60.84;95937.41;5012728;28;20045;-37
2024/03/31 04:14:10;;;;;;;11.57;5.60;;;9.50;91.20;;;11.48;61.26;95936.38;5029777;28;20052;-37
2024/03/31 04:16:37;;;;;;;12.43;5.23;;;9.60;91.80;;;11.46;61.12;95925.94;5005406;28;20163;-37
2024/03/31 04:19:03;;;;;;;23.30;5.17;;;9.50;91.60;;;11.46;61.11;95933.94;5029640;28;20409;-37
2024/03/31 04:21:30;;;;;;;15.43;5.80;;;9.50;92.30;;;11.47;61.41;95945.41;5012352;28;20417;-37
2024/03/31 04:23:58;;;;;;;16.37;5.90;;;9.60;92.80;;;11.47;61.42;95942.72;5029630;28;20045;-38
2024/03/31 04:26:27;;;;;;;14.93;5.40;;;9.60;92.60;;;11.48;61.56;95941.72;5012842;28;20425;-37
2024/03/31 04:28:55;;;;;;;14.23;5.33;;;9.60;93.40;;;11.47;61.84;95940.88;5030982;28;20034;-37
2024/03/31 04:31:21;;;;;;;15.40;6.73;;;9.60;93.60;;;11.49;62.07;95944.16;5017275;28;20052;-38
2024/03/31 04:33:48;;;;;;;16.97;6.37;;;9.70;93.70;;;11.50;62.23;95948.47;5015869;28;20041;-37
2024/03/31 04:36:15;;;;;;;15.77;6.30;;;9.70;94.30;;;11.48;62.43;95947.06;5016180;28;20041;-37
2024/03/31 04:38:42;;;;;;;15.53;7.30;;;9.70;94.20;;;11.48;62.31;95947.84;5016332;28;20545;-38
2024/03/31 04:41:10;;;;;;;21.33;7.40;;;9.70;94.40;;;11.49;62.55;95952.16;5029750;28;20045;-37
2024/03/31 04:43:37;;;;;;;23.43;7.50;;;9.80;95.10;;;11.50;62.42;95951.13;5015870;28;20042;-37
2024/03/31 04:46:08;;;;;;;15.90;6.23;;;9.70;95.20;;;11.50;62.48;95961.78;5016530;28;20053;-38
2024/03/31 04:48:37;;;;;;;20.00;7.13;;;9.70;95.80;;;11.47;62.47;95967.53;5016474;28;20041;-38
2024/03/31 04:51:08;;;;;;;16.10;7.87;;;9.60;96.30;;;11.46;62.41;95968.56;5016097;28;20054;-37
2024/03/31 04:53:39;;;;;;;15.27;5.87;;;9.60;96.20;;;11.45;62.27;95968.78;5015536;28;20053;-37
2024/03/31 04:56:08;;;;;;;23.67;6.30;;;9.60;95.50;;;11.41;62.12;95955.03;5016331;28;20045;-37
2024/03/31 04:58:34;;;;;;;15.07;6.20;;;9.60;95.40;;;11.39;62.24;95963.22;5016118;28;20057;-38
2024/03/31 05:01:01;;;;;;;12.10;6.27;;;9.60;95.10;;;11.36;62.52;95952.16;5016037;28;20417;-37
2024/03/31 05:03:28;;;;;;;13.77;6.10;;;9.50;94.90;;;11.34;62.38;95952.41;5015519;28;20049;-38
2024/03/31 05:05:54;;;;;;;16.53;6.93;;;9.50;94.60;;;11.31;62.43;95952.00;5015804;28;20046;-37
2024/03/31 05:08:21;;;;;;;14.37;6.67;;;9.40;94.10;;;11.27;62.35;95970.22;5032541;28;20405;-38
2024/03/31 05:10:58;;;;;;;11.80;4.90;;;9.40;94.90;;;11.26;62.94;95975.75;5015703;28;20049;-37
2024/03/31 05:13:29;;;;;;;13.03;5.33;;;9.30;95.20;;;11.24;62.61;95981.28;5015549;28;20057;-37
2024/03/31 05:16:04;;;;;;;7.13;3.53;;;9.30;95.60;;;11.25;62.78;95974.13;5016417;28;20514;-37
2024/03/31 05:18:34;;;;;;;10.00;4.40;;;9.40;96.90;;;11.24;62.72;95967.97;5015596;28;20053;-37
2024/03/31 05:21:08;;;;;;;9.85;4.07;;;9.40;95.80;;;11.26;62.85;95968.56;5016633;28;20042;-37
2024/03/31 05:23:42;;;;;;;12.83;4.07;;;9.30;96.10;;;11.29;62.69;95978.03;5015773;28;20046;-37
2024/03/31 05:26:12;;;;;;;10.27;4.97;;;9.40;96.10;;;11.33;63.07;95976.56;5015549;28;20389;-38
2024/03/31 05:28:41;;;;;;;11.27;5.00;;;9.50;95.40;;;11.33;62.62;95968.59;5015787;28;20045;-37
2024/03/31 05:31:08;;;;;;;7.63;4.47;;;9.50;95.00;;;11.31;62.76;95970.63;5015239;28;20045;-37
2024/03/31 05:33:48;;;;;;;12.57;6.10;;;9.50;94.30;;;11.31;62.72;95968.78;4995980;28;20053;-46
2024/03/31 05:36:15;;;;;;;7.47;4.20;;;9.60;93.60;;;11.34;62.57;95981.72;4998935;28;20535;-37
2024/03/31 05:38:42;;;;;;;16.33;5.43;;;9.50;93.90;;;11.35;62.46;95970.00;5015718;28;20046;-37
2024/03/31 05:41:13;;;;;;;16.30;6.33;;;9.50;93.70;;;11.27;62.86;95964.09;5015109;28;20050;-37
2024/03/31 05:43:40;;;;;;;10.87;5.93;;;9.60;93.30;;;11.27;62.81;95972.88;5014494;28;20041;-37
2024/03/31 05:46:07;;;;;;;13.13;5.53;;;9.50;93.70;;;11.31;62.67;95963.47;5014899;28;20041;-37
2024/03/31 05:48:34;;;;;;;13.30;6.57;;;9.50;93.70;;;11.34;62.47;95967.53;5014614;28;20064;-37
2024/03/31 05:51:01;;;;;;;15.83;5.47;;;9.60;94.30;;;11.37;62.58;95965.28;5015581;28;20060;-38
2024/03/31 05:53:31;;;;;;;11.43;5.10;;;9.60;93.80;;;11.37;62.42;95967.94;5015336;28;20409;-37
2024/03/31 05:55:58;;;;;;;18.50;5.77;;;9.50;94.10;;;11.38;62.49;95958.94;5014922;28;20056;-37
2024/03/31 05:58:25;;;;;;;9.70;4.90;;;9.60;94.50;;;11.40;62.76;95953.41;5015034;28;20060;-37
2024/03/31 06:00:52;;;;;;;16.20;7.20;;;9.60;94.80;;;11.43;62.59;95950.31;5014962;28;20045;-38
2024/03/31 06:03:24;;;;;;;16.63;7.77;;;9.60;95.60;;;11.43;62.97;95945.81;5015743;28;20048;-37
2024/03/31 06:05:51;;;;;;;18.47;6.13;;;9.60;94.90;;;11.43;62.68;95940.47;5014876;28;20045;-37
2024/03/31 06:08:18;;;;;;;13.70;5.70;;;9.60;95.60;;;11.45;62.71;95934.13;5014929;28;20048;-37
2024/03/31 06:10:45;;;;;;;12.53;5.63;;;9.60;95.40;;;11.46;63.12;95941.09;5014471;28;20049;-38
2024/03/31 06:13:12;;;;;;;12.70;5.57;;;9.60;95.50;;;11.46;63.07;95938.41;5031017;28;20520;-38
2024/03/31 06:15:38;;;;;;;9.87;5.27;;;9.60;96.20;;;11.48;63.19;95923.88;5014241;28;20508;-37
2024/03/31 06:18:06;;;;;;;7.30;4.93;;;9.60;96.10;;;11.48;63.09;95923.06;5014892;28;20049;-37
2024/03/31 06:20:36;;;;;;;12.57;4.70;;;9.70;96.40;;;11.48;63.47;95923.88;5014202;28;20041;-38
2024/03/31 06:23:02;;;;;;;13.43;5.87;;;9.60;96.90;;;11.47;63.72;95914.22;4998914;28;20048;-38
2024/03/31 06:25:29;;;;;;;7.43;4.93;;;9.60;97.60;;;11.49;63.56;95903.38;5014222;28;20060;-37
2024/03/31 06:27:56;;;;;;;10.43;4.87;;;9.60;98.20;;;11.53;63.45;95897.41;5014742;28;20041;-38
2024/03/31 06:30:23;;;;;;;11.33;5.27;;;9.70;97.80;;;11.56;63.68;95882.84;5014240;28;20068;-38
2024/03/31 06:32:50;;;;;;;10.30;5.13;;;9.70;97.70;;;11.59;63.50;95874.41;5006571;28;20049;-38
2024/03/31 06:35:16;;;;;;;13.40;5.60;;;9.80;98.30;;;11.61;63.77;95877.69;5014405;28;20050;-37
2024/03/31 06:37:43;;;;;;;11.87;5.60;;;9.80;98.20;;;11.63;63.83;95883.63;5014614;28;20057;-38
2024/03/31 06:40:10;;;;;;;12.13;6.43;;;9.80;98.50;;;11.65;63.77;95894.94;5014326;28;20049;-38
2024/03/31 06:42:36;;;;;;;10.50;6.00;;;9.80;98.70;;;11.70;63.56;95899.63;5013378;28;20081;-37
2024/03/31 06:45:04;;;;;;;10.27;6.30;;;9.90;98.60;;;11.73;63.70;95892.03;5013936;28;20045;-37
2024/03/31 06:47:30;;;;;;;13.33;6.70;;;9.90;98.30;;;11.75;63.78;95891.81;5013512;28;20054;-37
2024/03/31 06:49:58;;;;;;;35.63;7.43;;;10.00;97.80;;;11.80;64.01;95900.78;5014267;28;20045;-37
2024/03/31 06:52:24;;;;;;;12.37;5.80;;;10.00;98.10;;;11.84;64.07;95901.19;5013399;28;20053;-37
2024/03/31 06:54:53;;;;;;;15.30;7.00;;;10.10;97.70;;;11.90;64.03;95911.03;5018683;28;20438;-37
2024/03/31 06:57:19;;;;;;;15.97;6.47;;;10.20;97.60;;;11.92;64.18;95910.81;5026257;28;20432;-38
2024/03/31 06:59:47;;;;;;;16.87;6.13;;;10.10;96.90;;;11.94;63.80;95898.09;5013550;28;20053;-37
2024/03/31 07:02:14;;;;;;;11.40;6.40;;;10.20;97.00;;;11.95;63.84;95897.91;5010346;28;20057;-38
2024/03/31 07:04:40;;;;;;;13.10;5.97;;;10.20;96.60;;;11.96;63.79;95882.69;5012127;28;20053;-38
2024/03/31 07:07:07;;;;;;;17.90;6.37;;;10.20;96.60;;;12.00;63.98;95886.59;5012709;28;20041;-39
2024/03/31 07:09:34;;;;;;;15.13;7.40;;;10.30;96.30;;;12.06;64.04;95893.75;5012836;28;20424;-38
2024/03/31 07:12:00;;;;;;;14.63;6.40;;;10.40;96.30;;;12.08;64.10;95888.19;5012308;28;20060;-38
2024/03/31 07:14:27;;;;;;;12.63;6.17;;;10.50;95.60;;;12.15;64.11;95883.63;4996437;28;20045;-38
2024/03/31 07:16:55;;;;;;;16.10;6.17;;;10.60;95.30;;;12.22;63.71;95871.09;5012223;28;20046;-38
2024/03/31 07:19:21;;;;;;;14.50;6.53;;;10.60;95.10;;;12.25;63.98;95870.63;5029413;28;20046;-38
2024/03/31 07:21:48;;;;;;;17.80;7.47;;;10.70;95.40;;;12.31;64.00;95871.63;5028908;28;20052;-38
2024/03/31 07:24:15;;;;;;;15.33;7.37;;;10.70;94.80;;;12.38;64.07;95870.56;5012618;28;20053;-38
2024/03/31 07:26:41;;;;;;;13.33;6.33;;;10.80;95.00;;;12.45;63.89;95865.19;5029240;28;20052;-38
2024/03/31 07:29:08;;;;;;;19.43;7.60;;;10.80;94.70;;;12.51;63.97;95867.00;5012496;28;20046;-38
2024/03/31 07:31:35;;;;;;;20.97;7.17;;;10.90;94.30;;;12.57;63.82;95870.66;5011787;28;20425;-38
2024/03/31 07:34:04;;;;;;;11.70;6.23;;;11.00;93.60;;;12.57;63.51;95875.97;5012688;28;20034;-38
2024/03/31 07:36:31;;;;;;;13.07;6.30;;;11.10;92.90;;;12.58;63.66;95877.59;5028415;28;20045;-38
2024/03/31 07:38:58;;;;;;;17.57;7.07;;;11.00;92.90;;;12.55;63.52;95880.72;5028763;28;20041;-38
2024/03/31 07:41:24;;;;;;;14.13;6.80;;;11.10;92.80;;;12.54;63.58;95885.25;5028758;28;20053;-38
2024/03/31 07:43:51;;;;;;;12.63;6.03;;;11.10;92.50;;;12.55;63.75;95886.88;5028201;28;20505;-38
2024/03/31 07:46:18;;;;;;;11.83;6.30;;;11.20;92.30;;;12.57;63.74;95892.00;5029072;28;20046;-38
2024/03/31 07:48:44;;;;;;;12.67;5.40;;;11.20;91.90;;;12.58;63.77;95894.47;5028669;28;20493;-38
2024/03/31 07:51:11;;;;;;;19.60;5.97;;;11.20;91.80;;;12.65;63.48;95893.59;5029001;28;20052;-38
2024/03/31 07:53:38;;;;;;;16.13;5.07;;;11.20;91.30;;;12.61;63.53;95885.19;5028434;28;20524;-38
2024/03/31 07:56:04;;;;;;;13.53;4.33;;;11.20;90.90;;;12.65;63.38;95880.25;5028705;28;20038;-38
2024/03/31 07:58:31;;;;;;;11.27;4.47;;;11.20;90.70;;;12.68;63.50;95879.78;5012852;28;20052;-38
2024/03/31 08:01:00;;;;;;;14.97;4.70;;;11.30;90.30;;;12.74;63.41;95868.25;5028535;28;20061;-38
2024/03/31 08:03:28;;;;;;;10.47;4.30;;;11.30;90.20;;;12.82;63.13;95864.50;5028943;28;20042;-39
2024/03/31 08:05:55;;;;;;;11.73;4.57;;;11.40;89.90;;;12.89;63.00;95858.06;5032774;28;20037;-38
2024/03/31 08:08:21;;;;;;;15.53;5.93;;;11.50;89.80;;;12.95;63.13;95854.50;5032416;28;20034;-38
2024/03/31 08:10:49;;;;;;;14.83;4.73;;;11.50;89.50;;;13.01;62.75;95844.81;5032460;28;20078;-38
2024/03/31 08:13:15;;;;;;;28.87;12.30;;;11.60;88.90;;;13.06;62.90;95855.63;5032266;28;20042;-38
2024/03/31 08:15:42;;;;;;;16.83;7.73;;;11.70;88.80;;;13.14;62.93;95854.53;5032452;28;20464;-38
2024/03/31 08:18:10;;;;;;;13.50;4.65;;;11.80;88.40;;;13.21;62.79;95857.97;5032231;28;20677;-38
2024/03/31 08:20:36;;;;;;;14.43;4.60;;;11.90;88.00;;;13.29;62.70;95863.00;5032301;28;20527;-38
2024/03/31 08:23:03;;;;;;;8.88;4.03;;;11.90;87.80;;;13.37;62.53;95861.94;5031712;28;20416;-38
2024/03/31 08:25:30;;;;;;;8.95;3.72;;;12.00;86.80;;;13.45;62.47;95856.28;5032286;28;20420;-38
2024/03/31 08:27:57;;;;;;;9.85;4.38;;;12.10;86.50;;;13.55;62.34;95858.44;5032482;28;20413;-38
2024/03/31 08:30:24;;;;;;;14.20;4.50;;;12.20;86.60;;;13.64;62.10;95865.13;5015010;28;20370;-38
2024/03/31 08:32:51;;;;;;;15.38;3.90;;;12.30;85.40;;;13.72;62.07;95864.00;5032514;28;20428;-38
2024/03/31 08:35:18;;;;;;;8.93;3.53;;;12.40;85.40;;;13.79;61.84;95862.06;5033074;28;20041;-38
2024/03/31 08:37:47;;;;;;;10.73;3.83;;;12.50;84.10;;;13.87;61.80;95851.06;5033226;28;20053;-38
2024/03/31 08:40:14;;;;;;;10.45;4.60;;;12.50;84.10;;;13.94;61.31;95850.97;5033004;28;20412;-38
2024/03/31 08:43:06;;;;;;;12.75;3.75;;;12.70;83.70;;;13.98;61.03;95855.66;5015837;28;20045;-38
2024/03/31 08:45:34;;;;;;;9.15;3.72;;;12.70;82.40;;;14.02;60.94;95842.63;5018476;28;20048;-38
2024/03/31 08:48:02;;;;;;;8.48;2.85;;;12.70;81.90;;;14.06;60.66;95851.84;5032830;28;20045;-38
2024/03/31 08:50:28;;;;;;;7.25;3.00;;;12.70;81.50;;;14.11;60.66;95854.66;5016628;28;20045;-38
2024/03/31 08:52:55;;;;;;;7.25;3.38;;;12.80;81.30;;;14.20;60.63;95846.31;5032081;28;20048;-38
2024/03/31 08:55:22;;;;;;;10.43;3.13;;;12.90;81.30;;;14.30;60.47;95841.22;5016646;28;20030;-39
2024/03/31 08:57:49;;;;;;;9.75;3.55;;;13.00;81.20;;;14.36;60.24;95846.47;5016745;28;20042;-38
2024/03/31 09:00:15;;;;;;;13.95;4.15;;;13.10;80.80;;;14.42;59.93;95834.00;5032766;28;20042;-38
2024/03/31 09:02:42;;;;;;;21.42;5.55;;;13.10;80.50;;;14.46;59.75;95829.84;5032147;28;20037;-41
2024/03/31 09:05:09;;;;;;;14.32;4.05;;;13.10;79.80;;;14.53;59.49;95827.06;5015710;28;20049;-41
2024/03/31 09:07:36;;;;;;;18.30;4.60;;;13.20;80.10;;;14.57;59.41;95828.25;5016209;28;20052;-41
2024/03/31 09:10:04;;;;;;;12.73;3.78;;;13.20;79.30;;;14.59;59.16;95823.50;5032486;28;20045;-41
2024/03/31 09:12:32;;;;;;;11.70;4.60;;;13.30;79.20;;;14.62;59.02;95820.34;5031871;28;20426;-41
2024/03/31 09:15:02;;;;;;;9.23;3.00;;;13.30;78.80;;;14.64;59.08;95810.22;5015890;28;20053;-41
2024/03/31 09:17:29;;;;;;;9.93;3.08;;;13.30;78.70;;;14.70;58.72;95803.13;5032540;28;20495;-41
2024/03/31 09:19:55;;;;;;;13.80;3.22;;;13.40;78.20;;;14.75;58.63;95806.75;5032439;28;20057;-41
2024/03/31 09:22:22;;;;;;;16.17;3.70;;;13.50;78.10;;;14.82;58.50;95811.97;5031010;28;20045;-41
2024/03/31 09:24:49;;;;;;;9.05;3.42;;;13.50;77.80;;;14.86;58.37;95810.47;5032239;28;20038;-41
2024/03/31 09:27:16;;;;;;;11.00;4.30;;;13.50;77.80;;;14.92;58.15;95809.53;5032328;28;20029;-41
2024/03/31 09:29:43;;;;;;;13.60;3.72;;;13.60;76.90;;;15.00;58.05;95810.22;4999320;28;20041;-41
2024/03/31 09:32:17;;;;;;;13.18;3.85;;;13.70;76.80;;;15.00;57.71;95803.00;5032182;28;20038;-41
2024/03/31 09:34:44;;;;;;;15.75;4.28;;;13.70;75.50;;;15.03;57.70;95791.81;5031767;28;20071;-41
2024/03/31 09:37:11;;;;;;;11.05;3.15;;;13.80;75.80;;;15.06;57.60;95793.22;5031531;28;20041;-41
2024/03/31 09:39:40;;;;;;;13.70;3.40;;;13.70;76.10;;;15.09;57.53;95798.13;5032026;28;20041;-41
2024/03/31 09:42:08;;;;;;;13.15;4.68;;;13.80;75.50;;;15.11;57.31;95794.13;5015084;28;20041;-41
2024/03/31 09:44:44;;;;;;;11.45;3.53;;;13.80;75.50;;;15.17;57.23;95789.72;5031671;28;20401;-41
2024/03/31 09:47:29;;;;;;;8.55;3.22;;;13.90;75.30;;;15.23;57.61;95775.34;5024133;28;20038;-41
2024/03/31 09:50:27;;;;;;;11.68;3.03;;;14.00;74.50;;;15.32;57.21;95783.88;5031826;28;20419;-41
2024/03/31 09:53:03;;;;;;;14.98;3.20;;;14.10;74.80;;;15.44;56.80;95770.44;5016571;28;20050;-41
2024/03/31 09:55:38;;;;;;;12.27;4.47;;;14.20;74.10;;;15.53;56.39;95769.00;5031853;28;20045;-41
2024/03/31 09:58:11;;;;;;;13.57;3.67;;;14.30;72.90;;;15.62;56.04;95750.66;5014948;28;20527;-42
2024/03/31 10:00:44;;;;;;;7.17;2.97;;;14.40;73.20;;;15.71;56.02;95743.88;5031589;28;20052;-41
2024/03/31 10:03:28;;;;;;;12.52;3.28;;;14.40;72.70;;;15.73;55.43;95749.84;5007130;28;20048;-41
2024/03/31 10:05:56;;;;;;;15.38;3.38;;;14.50;70.10;;;15.75;55.29;95759.25;5014873;28;20054;-41
2024/03/31 10:08:29;;;;;;;15.68;3.65;;;14.50;71.60;;;15.75;55.20;95751.22;5015528;28;20061;-41
2024/03/31 10:11:01;;;;;;;9.03;3.40;;;14.50;71.20;;;15.74;55.07;95752.28;5015597;28;20049;-41
2024/03/31 10:13:28;;;;;;;6.97;2.45;;;14.50;70.90;;;15.75;55.13;95742.34;5030454;28;20312;-41
2024/03/31 10:15:56;;;;;;;11.05;3.67;;;14.40;71.40;;;15.77;54.93;95742.94;5030770;28;20436;-41
2024/03/31 10:18:27;;;;;;;8.73;3.00;;;14.50;72.40;;;15.79;54.86;95746.19;5014798;28;20425;-41